Impacts TAF Board INFO
FOR SITUATIONAL AWARENESS. NOT TO BE USED FOR FLIGHT PLANNING PURPOSES.
IDs:

KPHX - Phoenix/Sky Harbor, AZ, US

Issued at 1720 UTC 22 Apr 2018
Updated at 2020 UTC 22 Apr 2018
Potential Impact None Slight Moderate High
Time1951Z 22/21Z 22/22Z 22/23Z 23/00Z 23/01Z 23/02Z 23/03Z 23/04Z 23/05Z 23/06Z 23/07Z 23/08Z 23/09Z>>
Type OBS PRVL PRVL PRVL PRVL PRVL PRVL PRVL PRVL PRVL PRVL PRVL PRVL PRVL
VIS 10 >6 >6 >6 >6 >6 >6 >6 >6 >6 >6 >6 >6 >6
CIG -- -- -- -- -- -- -- -- -- -- -- -- -- --
Cover SCT SCT SCT SCT SCT SCT SCT SCT SCT SCT SCT SCT SCT SCT
FltCat VFR VFR VFR VFR VFR VFR VFR VFR VFR VFR VFR VFR VFR VFR
WX -- -- -- -- -- -- -- -- -- -- -- -- -- --
WDir VRB 250 250 250 250 250 250 250 250 250 250 250 100 100
WSpd 0 7 7 7 7 7 7 7 7 7 7 7 6 6
WGst -- -- -- -- -- -- -- -- -- -- -- -- -- --

Raw TAF
KPHX 221720Z 2218/2324 10005KT P6SM SCT250
  FM222000 25007KT P6SM SCT180 SCT250
  FM230800 10006KT P6SM SCT250
  FM231900 25005KT P6SM SKC


Raw METAR
KPHX 221951Z 00000KT 10SM FEW140 FEW180 SCT200 33/M02 A2985 RMK AO2 SLP090 T03281017
KPHX 221851Z 16007KT 10SM FEW140 FEW180 SCT200 32/M01 A2988 RMK AO2 SLP099 T03171011
KPHX 221751Z VRB03KT 10SM FEW180 SCT200 29/M01 A2990 RMK AO2 SLP107 T02941006 10306 20172 58006

METAR Board
Radar Display
Forecast Discussion

FOR SITUATIONAL AWARENESS. NOT TO BE USED FOR FLIGHT PLANNING PURPOSES.